sensor_id;sensor_type;location;lat;lon;timestamp;P1;durP1;ratioP1;P2;durP2;ratioP2
33862;SDS011;20158;51.436;-2.742;2022-11-20T00:02:24;4.15;;;1.67;;
33862;SDS011;20158;51.436;-2.742;2022-11-20T00:05:09;3.70;;;1.70;;
33862;SDS011;20158;51.436;-2.742;2022-11-20T00:07:54;2.28;;;1.48;;
33862;SDS011;20158;51.436;-2.742;2022-11-20T00:10:39;3.17;;;2.08;;
33862;SDS011;20158;51.436;-2.742;2022-11-20T00:13:23;2.97;;;1.67;;
33862;SDS011;20158;51.436;-2.742;2022-11-20T00:16:09;3.05;;;1.73;;
33862;SDS011;20158;51.436;-2.742;2022-11-20T00:18:54;3.53;;;1.42;;
33862;SDS011;20158;51.436;-2.742;2022-11-20T00:21:38;3.58;;;1.55;;
33862;SDS011;20158;51.436;-2.742;2022-11-20T00:24:23;3.38;;;1.50;;
33862;SDS011;20158;51.436;-2.742;2022-11-20T00:27:08;3.55;;;1.30;;
33862;SDS011;20158;51.436;-2.742;2022-11-20T00:29:52;4.32;;;1.67;;
33862;SDS011;20158;51.436;-2.742;2022-11-20T00:32:37;2.40;;;1.63;;
33862;SDS011;20158;51.436;-2.742;2022-11-20T00:35:21;2.75;;;1.52;;
33862;SDS011;20158;51.436;-2.742;2022-11-20T00:38:06;2.97;;;1.90;;
33862;SDS011;20158;51.436;-2.742;2022-11-20T00:40:55;4.45;;;1.60;;
33862;SDS011;20158;51.436;-2.742;2022-11-20T00:43:41;3.15;;;1.58;;
33862;SDS011;20158;51.436;-2.742;2022-11-20T00:46:26;4.13;;;1.70;;
33862;SDS011;20158;51.436;-2.742;2022-11-20T00:49:11;2.78;;;1.88;;
33862;SDS011;20158;51.436;-2.742;2022-11-20T00:51:56;1.75;;;1.55;;
33862;SDS011;20158;51.436;-2.742;2022-11-20T00:54:41;2.90;;;1.60;;
33862;SDS011;20158;51.436;-2.742;2022-11-20T00:57:26;3.40;;;1.80;;
33862;SDS011;20158;51.436;-2.742;2022-11-20T01:00:10;3.05;;;1.33;;
33862;SDS011;20158;51.436;-2.742;2022-11-20T01:02:55;5.00;;;1.77;;
33862;SDS011;20158;51.436;-2.742;2022-11-20T01:05:40;1.95;;;1.55;;
33862;SDS011;20158;51.436;-2.742;2022-11-20T01:08:25;3.65;;;1.35;;
33862;SDS011;20158;51.436;-2.742;2022-11-20T01:11:13;2.22;;;1.30;;
33862;SDS011;20158;51.436;-2.742;2022-11-20T01:13:59;2.63;;;1.48;;
33862;SDS011;20158;51.436;-2.742;2022-11-20T01:16:47;1.90;;;1.38;;
33862;SDS011;20158;51.436;-2.742;2022-11-20T01:19:34;3.05;;;1.52;;
33862;SDS011;20158;51.436;-2.742;2022-11-20T01:22:18;1.88;;;1.05;;
33862;SDS011;20158;51.436;-2.742;2022-11-20T01:25:03;2.60;;;1.73;;
33862;SDS011;20158;51.436;-2.742;2022-11-20T01:27:47;2.42;;;1.27;;
33862;SDS011;20158;51.436;-2.742;2022-11-20T01:30:32;1.92;;;1.08;;
33862;SDS011;20158;51.436;-2.742;2022-11-20T01:33:17;2.55;;;1.20;;
33862;SDS011;20158;51.436;-2.742;2022-11-20T01:36:05;3.08;;;1.13;;
33862;SDS011;20158;51.436;-2.742;2022-11-20T01:38:54;1.63;;;1.20;;
33862;SDS011;20158;51.436;-2.742;2022-11-20T01:41:40;1.42;;;1.08;;
33862;SDS011;20158;51.436;-2.742;2022-11-20T01:44:57;1.45;;;1.00;;
33862;SDS011;20158;51.436;-2.742;2022-11-20T01:47:44;1.92;;;1.10;;
33862;SDS011;20158;51.436;-2.742;2022-11-20T01:50:30;1.83;;;0.95;;
33862;SDS011;20158;51.436;-2.742;2022-11-20T01:53:16;2.85;;;1.25;;
33862;SDS011;20158;51.436;-2.742;2022-11-20T01:56:05;0.95;;;0.70;;
33862;SDS011;20158;51.436;-2.742;2022-11-20T01:58:56;1.83;;;0.70;;
33862;SDS011;20158;51.436;-2.742;2022-11-20T02:01:45;1.20;;;0.65;;
33862;SDS011;20158;51.436;-2.742;2022-11-20T02:04:29;1.45;;;0.85;;
33862;SDS011;20158;51.436;-2.742;2022-11-20T02:07:14;1.05;;;0.70;;
33862;SDS011;20158;51.436;-2.742;2022-11-20T02:09:59;1.75;;;0.82;;
33862;SDS011;20158;51.436;-2.742;2022-11-20T02:12:44;1.23;;;0.63;;
33862;SDS011;20158;51.436;-2.742;2022-11-20T02:15:47;1.85;;;0.70;;
33862;SDS011;20158;51.436;-2.742;2022-11-20T02:18:32;2.35;;;0.88;;
33862;SDS011;20158;51.436;-2.742;2022-11-20T02:24:29;2.25;;;0.90;;
33862;SDS011;20158;51.436;-2.742;2022-11-20T02:27:14;0.80;;;0.60;;
33862;SDS011;20158;51.436;-2.742;2022-11-20T02:30:00;2.03;;;0.80;;
33862;SDS011;20158;51.436;-2.742;2022-11-20T02:32:47;1.58;;;1.40;;
33862;SDS011;20158;51.436;-2.742;2022-11-20T02:38:16;0.73;;;0.43;;
33862;SDS011;20158;51.436;-2.742;2022-11-20T02:41:01;0.93;;;0.50;;
33862;SDS011;20158;51.436;-2.742;2022-11-20T02:43:46;1.30;;;1.05;;
33862;SDS011;20158;51.436;-2.742;2022-11-20T02:46:31;0.85;;;0.57;;
33862;SDS011;20158;51.436;-2.742;2022-11-20T02:49:16;1.98;;;0.50;;
33862;SDS011;20158;51.436;-2.742;2022-11-20T02:52:01;1.45;;;0.60;;
33862;SDS011;20158;51.436;-2.742;2022-11-20T02:54:45;0.93;;;0.50;;
33862;SDS011;20158;51.436;-2.742;2022-11-20T02:57:30;2.80;;;0.80;;
33862;SDS011;20158;51.436;-2.742;2022-11-20T03:00:14;1.05;;;0.50;;
33862;SDS011;20158;51.436;-2.742;2022-11-20T03:02:59;0.50;;;0.30;;
33862;SDS011;20158;51.436;-2.742;2022-11-20T03:05:43;0.82;;;0.60;;
33862;SDS011;20158;51.436;-2.742;2022-11-20T03:08:27;0.75;;;0.50;;
33862;SDS011;20158;51.436;-2.742;2022-11-20T03:11:12;2.10;;;0.57;;
33862;SDS011;20158;51.436;-2.742;2022-11-20T03:13:57;0.60;;;0.50;;
33862;SDS011;20158;51.436;-2.742;2022-11-20T03:16:41;0.63;;;0.52;;
33862;SDS011;20158;51.436;-2.742;2022-11-20T03:19:26;1.38;;;0.40;;
33862;SDS011;20158;51.436;-2.742;2022-11-20T03:22:11;0.32;;;0.32;;
33862;SDS011;20158;51.436;-2.742;2022-11-20T03:24:55;1.25;;;0.55;;
33862;SDS011;20158;51.436;-2.742;2022-11-20T03:27:40;0.30;;;0.30;;
33862;SDS011;20158;51.436;-2.742;2022-11-20T03:30:24;0.90;;;0.57;;
33862;SDS011;20158;51.436;-2.742;2022-11-20T03:33:09;0.57;;;0.25;;
33862;SDS011;20158;51.436;-2.742;2022-11-20T03:35:53;0.82;;;0.40;;
33862;SDS011;20158;51.436;-2.742;2022-11-20T03:38:38;1.55;;;0.35;;
33862;SDS011;20158;51.436;-2.742;2022-11-20T03:41:23;0.30;;;0.30;;
33862;SDS011;20158;51.436;-2.742;2022-11-20T03:44:10;1.98;;;0.50;;
33862;SDS011;20158;51.436;-2.742;2022-11-20T03:46:56;0.90;;;0.55;;
33862;SDS011;20158;51.436;-2.742;2022-11-20T03:49:40;0.50;;;0.50;;
33862;SDS011;20158;51.436;-2.742;2022-11-20T03:52:25;1.15;;;0.60;;
33862;SDS011;20158;51.436;-2.742;2022-11-20T03:55:10;0.52;;;0.50;;
33862;SDS011;20158;51.436;-2.742;2022-11-20T03:57:55;0.68;;;0.50;;
33862;SDS011;20158;51.436;-2.742;2022-11-20T04:00:39;1.20;;;0.60;;
33862;SDS011;20158;51.436;-2.742;2022-11-20T04:03:24;1.42;;;0.50;;
33862;SDS011;20158;51.436;-2.742;2022-11-20T04:06:13;0.85;;;0.50;;
33862;SDS011;20158;51.436;-2.742;2022-11-20T04:08:58;1.65;;;0.65;;
33862;SDS011;20158;51.436;-2.742;2022-11-20T04:11:42;2.17;;;0.60;;
33862;SDS011;20158;51.436;-2.742;2022-11-20T04:14:27;1.38;;;0.60;;
33862;SDS011;20158;51.436;-2.742;2022-11-20T04:17:11;1.95;;;0.70;;
33862;SDS011;20158;51.436;-2.742;2022-11-20T04:19:56;1.35;;;1.25;;
33862;SDS011;20158;51.436;-2.742;2022-11-20T04:22:40;1.15;;;0.50;;
33862;SDS011;20158;51.436;-2.742;2022-11-20T04:25:24;0.52;;;0.52;;
33862;SDS011;20158;51.436;-2.742;2022-11-20T04:28:09;1.08;;;0.68;;
33862;SDS011;20158;51.436;-2.742;2022-11-20T04:30:53;1.33;;;0.98;;
33862;SDS011;20158;51.436;-2.742;2022-11-20T04:33:38;0.82;;;0.57;;
33862;SDS011;20158;51.436;-2.742;2022-11-20T04:36:26;0.75;;;0.50;;
33862;SDS011;20158;51.436;-2.742;2022-11-20T04:39:12;1.15;;;0.60;;
33862;SDS011;20158;51.436;-2.742;2022-11-20T04:41:58;1.55;;;0.50;;
33862;SDS011;20158;51.436;-2.742;2022-11-20T04:45:01;1.48;;;0.70;;
33862;SDS011;20158;51.436;-2.742;2022-11-20T04:47:46;0.65;;;0.65;;
33862;SDS011;20158;51.436;-2.742;2022-11-20T04:50:31;1.10;;;0.70;;
33862;SDS011;20158;51.436;-2.742;2022-11-20T04:53:15;0.90;;;0.70;;
33862;SDS011;20158;51.436;-2.742;2022-11-20T04:56:01;1.05;;;0.70;;
33862;SDS011;20158;51.436;-2.742;2022-11-20T04:58:46;1.17;;;0.90;;
33862;SDS011;20158;51.436;-2.742;2022-11-20T05:01:31;1.55;;;0.75;;
33862;SDS011;20158;51.436;-2.742;2022-11-20T05:04:16;1.13;;;0.70;;
33862;SDS011;20158;51.436;-2.742;2022-11-20T05:07:01;1.92;;;1.02;;
33862;SDS011;20158;51.436;-2.742;2022-11-20T05:09:45;0.85;;;0.63;;
33862;SDS011;20158;51.436;-2.742;2022-11-20T05:12:30;0.95;;;0.80;;
33862;SDS011;20158;51.436;-2.742;2022-11-20T05:15:15;1.30;;;0.68;;
33862;SDS011;20158;51.436;-2.742;2022-11-20T05:18:00;0.95;;;0.82;;
33862;SDS011;20158;51.436;-2.742;2022-11-20T05:20:44;0.75;;;0.60;;
33862;SDS011;20158;51.436;-2.742;2022-11-20T05:23:29;0.63;;;0.60;;
33862;SDS011;20158;51.436;-2.742;2022-11-20T05:26:17;1.38;;;0.82;;
33862;SDS011;20158;51.436;-2.742;2022-11-20T05:29:03;1.30;;;0.80;;
33862;SDS011;20158;51.436;-2.742;2022-11-20T05:31:48;1.60;;;0.70;;
33862;SDS011;20158;51.436;-2.742;2022-11-20T05:34:33;1.10;;;0.80;;
33862;SDS011;20158;51.436;-2.742;2022-11-20T05:37:17;1.10;;;1.00;;
33862;SDS011;20158;51.436;-2.742;2022-11-20T05:40:02;1.25;;;1.13;;
33862;SDS011;20158;51.436;-2.742;2022-11-20T05:42:47;2.53;;;1.00;;
33862;SDS011;20158;51.436;-2.742;2022-11-20T05:45:32;1.27;;;1.15;;
33862;SDS011;20158;51.436;-2.742;2022-11-20T05:48:16;1.80;;;1.20;;
33862;SDS011;20158;51.436;-2.742;2022-11-20T05:51:01;1.15;;;1.00;;
33862;SDS011;20158;51.436;-2.742;2022-11-20T05:53:47;1.75;;;1.40;;
33862;SDS011;20158;51.436;-2.742;2022-11-20T05:56:31;1.00;;;0.90;;
33862;SDS011;20158;51.436;-2.742;2022-11-20T05:59:16;2.85;;;1.30;;
33862;SDS011;20158;51.436;-2.742;2022-11-20T06:02:01;1.25;;;1.15;;
33862;SDS011;20158;51.436;-2.742;2022-11-20T06:04:45;1.83;;;1.10;;
33862;SDS011;20158;51.436;-2.742;2022-11-20T06:07:30;1.83;;;1.20;;
33862;SDS011;20158;51.436;-2.742;2022-11-20T06:10:15;1.77;;;1.00;;
33862;SDS011;20158;51.436;-2.742;2022-11-20T06:12:59;2.38;;;1.40;;
33862;SDS011;20158;51.436;-2.742;2022-11-20T06:15:51;1.17;;;1.08;;
33862;SDS011;20158;51.436;-2.742;2022-11-20T06:18:36;2.78;;;1.10;;
33862;SDS011;20158;51.436;-2.742;2022-11-20T06:21:21;1.42;;;1.02;;
33862;SDS011;20158;51.436;-2.742;2022-11-20T06:24:06;2.25;;;1.10;;
33862;SDS011;20158;51.436;-2.742;2022-11-20T06:26:52;2.53;;;1.30;;
33862;SDS011;20158;51.436;-2.742;2022-11-20T06:29:37;2.83;;;1.48;;
33862;SDS011;20158;51.436;-2.742;2022-11-20T06:32:24;1.88;;;1.20;;
33862;SDS011;20158;51.436;-2.742;2022-11-20T06:35:09;1.50;;;1.30;;
33862;SDS011;20158;51.436;-2.742;2022-11-20T06:37:53;1.27;;;1.17;;
33862;SDS011;20158;51.436;-2.742;2022-11-20T06:40:40;3.10;;;1.42;;
33862;SDS011;20158;51.436;-2.742;2022-11-20T06:43:25;2.33;;;1.38;;
33862;SDS011;20158;51.436;-2.742;2022-11-20T06:46:11;1.85;;;1.30;;
33862;SDS011;20158;51.436;-2.742;2022-11-20T06:48:56;2.15;;;1.40;;
33862;SDS011;20158;51.436;-2.742;2022-11-20T06:51:41;2.30;;;1.25;;
33862;SDS011;20158;51.436;-2.742;2022-11-20T06:54:25;2.10;;;1.38;;
33862;SDS011;20158;51.436;-2.742;2022-11-20T06:57:10;2.00;;;1.40;;
33862;SDS011;20158;51.436;-2.742;2022-11-20T06:59:55;3.17;;;1.48;;
33862;SDS011;20158;51.436;-2.742;2022-11-20T07:02:39;1.42;;;1.27;;
33862;SDS011;20158;51.436;-2.742;2022-11-20T07:05:24;3.10;;;1.60;;
33862;SDS011;20158;51.436;-2.742;2022-11-20T07:08:09;4.72;;;1.88;;
33862;SDS011;20158;51.436;-2.742;2022-11-20T07:10:56;3.13;;;1.92;;
33862;SDS011;20158;51.436;-2.742;2022-11-20T07:13:45;5.20;;;2.00;;
33862;SDS011;20158;51.436;-2.742;2022-11-20T07:16:29;4.03;;;1.75;;
33862;SDS011;20158;51.436;-2.742;2022-11-20T07:19:14;8.80;;;2.45;;
33862;SDS011;20158;51.436;-2.742;2022-11-20T07:21:58;8.32;;;2.50;;
33862;SDS011;20158;51.436;-2.742;2022-11-20T07:24:43;6.85;;;2.33;;
33862;SDS011;20158;51.436;-2.742;2022-11-20T07:27:28;9.65;;;2.42;;
33862;SDS011;20158;51.436;-2.742;2022-11-20T07:30:13;13.00;;;2.70;;
33862;SDS011;20158;51.436;-2.742;2022-11-20T07:32:59;11.43;;;3.08;;
33862;SDS011;20158;51.436;-2.742;2022-11-20T07:35:43;8.18;;;3.25;;
33862;SDS011;20158;51.436;-2.742;2022-11-20T07:38:29;14.30;;;3.13;;
33862;SDS011;20158;51.436;-2.742;2022-11-20T07:41:13;6.97;;;3.45;;
33862;SDS011;20158;51.436;-2.742;2022-11-20T07:43:58;13.30;;;3.53;;
33862;SDS011;20158;51.436;-2.742;2022-11-20T07:46:43;9.05;;;2.58;;
33862;SDS011;20158;51.436;-2.742;2022-11-20T07:49:27;15.18;;;3.47;;
33862;SDS011;20158;51.436;-2.742;2022-11-20T07:52:12;9.43;;;3.15;;
33862;SDS011;20158;51.436;-2.742;2022-11-20T07:54:56;12.25;;;2.42;;
33862;SDS011;20158;51.436;-2.742;2022-11-20T07:57:41;7.07;;;2.38;;
33862;SDS011;20158;51.436;-2.742;2022-11-20T08:00:25;9.77;;;2.35;;
33862;SDS011;20158;51.436;-2.742;2022-11-20T08:03:10;7.63;;;3.17;;
33862;SDS011;20158;51.436;-2.742;2022-11-20T08:05:58;8.63;;;2.80;;
33862;SDS011;20158;51.436;-2.742;2022-11-20T08:08:45;9.35;;;2.10;;
33862;SDS011;20158;51.436;-2.742;2022-11-20T08:11:29;9.93;;;2.50;;
33862;SDS011;20158;51.436;-2.742;2022-11-20T08:14:32;9.52;;;2.35;;
33862;SDS011;20158;51.436;-2.742;2022-11-20T08:17:17;8.50;;;3.03;;
33862;SDS011;20158;51.436;-2.742;2022-11-20T08:20:01;6.50;;;2.42;;
33862;SDS011;20158;51.436;-2.742;2022-11-20T08:22:46;11.73;;;3.08;;
33862;SDS011;20158;51.436;-2.742;2022-11-20T08:25:31;8.18;;;2.75;;
33862;SDS011;20158;51.436;-2.742;2022-11-20T08:28:16;8.27;;;2.92;;
33862;SDS011;20158;51.436;-2.742;2022-11-20T08:31:01;9.85;;;2.30;;
33862;SDS011;20158;51.436;-2.742;2022-11-20T08:33:46;8.40;;;3.10;;
33862;SDS011;20158;51.436;-2.742;2022-11-20T08:36:33;6.72;;;2.47;;
33862;SDS011;20158;51.436;-2.742;2022-11-20T08:39:18;7.70;;;3.33;;
33862;SDS011;20158;51.436;-2.742;2022-11-20T08:42:06;8.25;;;3.03;;
33862;SDS011;20158;51.436;-2.742;2022-11-20T08:44:51;7.97;;;2.72;;
33862;SDS011;20158;51.436;-2.742;2022-11-20T08:47:36;7.50;;;3.10;;
33862;SDS011;20158;51.436;-2.742;2022-11-20T08:50:20;8.00;;;2.90;;
33862;SDS011;20158;51.436;-2.742;2022-11-20T08:53:05;6.10;;;2.92;;
33862;SDS011;20158;51.436;-2.742;2022-11-20T08:55:49;6.05;;;3.45;;
33862;SDS011;20158;51.436;-2.742;2022-11-20T08:58:34;7.03;;;3.22;;
33862;SDS011;20158;51.436;-2.742;2022-11-20T09:01:19;10.38;;;4.47;;
33862;SDS011;20158;51.436;-2.742;2022-11-20T09:04:04;6.85;;;3.75;;
33862;SDS011;20158;51.436;-2.742;2022-11-20T09:06:49;8.35;;;3.33;;
33862;SDS011;20158;51.436;-2.742;2022-11-20T09:09:36;8.60;;;3.58;;
33862;SDS011;20158;51.436;-2.742;2022-11-20T09:12:20;12.95;;;4.63;;
33862;SDS011;20158;51.436;-2.742;2022-11-20T09:15:05;11.02;;;3.92;;
33862;SDS011;20158;51.436;-2.742;2022-11-20T09:20:38;8.75;;;3.53;;
33862;SDS011;20158;51.436;-2.742;2022-11-20T09:23:23;9.60;;;3.88;;
33862;SDS011;20158;51.436;-2.742;2022-11-20T09:26:11;9.00;;;3.60;;
33862;SDS011;20158;51.436;-2.742;2022-11-20T09:28:57;12.15;;;4.20;;
33862;SDS011;20158;51.436;-2.742;2022-11-20T09:31:42;9.32;;;3.67;;
33862;SDS011;20158;51.436;-2.742;2022-11-20T09:34:26;13.10;;;5.15;;
33862;SDS011;20158;51.436;-2.742;2022-11-20T09:37:11;9.85;;;4.30;;
33862;SDS011;20158;51.436;-2.742;2022-11-20T09:39:55;13.73;;;4.32;;
33862;SDS011;20158;51.436;-2.742;2022-11-20T09:42:41;13.82;;;4.90;;
33862;SDS011;20158;51.436;-2.742;2022-11-20T09:45:37;12.80;;;3.90;;
33862;SDS011;20158;51.436;-2.742;2022-11-20T09:48:42;12.73;;;3.85;;
33862;SDS011;20158;51.436;-2.742;2022-11-20T09:54:37;14.45;;;4.28;;
33862;SDS011;20158;51.436;-2.742;2022-11-20T09:57:37;14.20;;;3.83;;
33862;SDS011;20158;51.436;-2.742;2022-11-20T10:00:25;13.00;;;3.88;;
33862;SDS011;20158;51.436;-2.742;2022-11-20T10:03:13;13.57;;;3.70;;
33862;SDS011;20158;51.436;-2.742;2022-11-20T10:06:03;15.15;;;4.65;;
33862;SDS011;20158;51.436;-2.742;2022-11-20T10:08:55;16.02;;;4.57;;
33862;SDS011;20158;51.436;-2.742;2022-11-20T10:15:03;18.55;;;5.20;;
33862;SDS011;20158;51.436;-2.742;2022-11-20T10:24:37;17.23;;;5.63;;
33862;SDS011;20158;51.436;-2.742;2022-11-20T10:30:25;13.35;;;4.53;;
33862;SDS011;20158;51.436;-2.742;2022-11-20T10:33:15;15.82;;;3.92;;
33862;SDS011;20158;51.436;-2.742;2022-11-20T10:39:38;15.55;;;4.18;;
33862;SDS011;20158;51.436;-2.742;2022-11-20T10:42:29;17.20;;;6.25;;
33862;SDS011;20158;51.436;-2.742;2022-11-20T10:48:15;19.83;;;6.20;;
33862;SDS011;20158;51.436;-2.742;2022-11-20T10:54:28;21.27;;;6.32;;
33862;SDS011;20158;51.436;-2.742;2022-11-20T11:00:30;21.42;;;7.30;;
33862;SDS011;20158;51.436;-2.742;2022-11-20T11:09:22;15.85;;;4.68;;
33862;SDS011;20158;51.436;-2.742;2022-11-20T11:12:16;24.55;;;6.00;;
33862;SDS011;20158;51.436;-2.742;2022-11-20T11:15:00;14.75;;;4.65;;
33862;SDS011;20158;51.436;-2.742;2022-11-20T11:17:46;17.02;;;4.90;;
33862;SDS011;20158;51.436;-2.742;2022-11-20T11:20:31;14.27;;;4.88;;
33862;SDS011;20158;51.436;-2.742;2022-11-20T11:23:33;16.08;;;4.82;;
33862;SDS011;20158;51.436;-2.742;2022-11-20T11:26:19;12.90;;;4.68;;
33862;SDS011;20158;51.436;-2.742;2022-11-20T11:29:05;18.20;;;5.82;;
33862;SDS011;20158;51.436;-2.742;2022-11-20T11:31:50;18.02;;;4.85;;
33862;SDS011;20158;51.436;-2.742;2022-11-20T11:34:34;13.27;;;5.28;;
33862;SDS011;20158;51.436;-2.742;2022-11-20T11:37:19;16.52;;;7.07;;
33862;SDS011;20158;51.436;-2.742;2022-11-20T11:40:11;15.55;;;6.70;;
33862;SDS011;20158;51.436;-2.742;2022-11-20T11:42:56;14.57;;;5.35;;
33862;SDS011;20158;51.436;-2.742;2022-11-20T11:45:50;19.20;;;5.55;;
33862;SDS011;20158;51.436;-2.742;2022-11-20T11:48:36;20.90;;;4.72;;
33862;SDS011;20158;51.436;-2.742;2022-11-20T11:51:21;22.55;;;5.30;;
33862;SDS011;20158;51.436;-2.742;2022-11-20T11:54:10;14.10;;;4.10;;
33862;SDS011;20158;51.436;-2.742;2022-11-20T12:00:23;11.57;;;4.72;;
33862;SDS011;20158;51.436;-2.742;2022-11-20T12:03:21;18.30;;;4.78;;
33862;SDS011;20158;51.436;-2.742;2022-11-20T12:06:13;15.82;;;3.47;;
33862;SDS011;20158;51.436;-2.742;2022-11-20T12:09:04;10.95;;;4.93;;
33862;SDS011;20158;51.436;-2.742;2022-11-20T12:12:05;10.82;;;3.30;;
33862;SDS011;20158;51.436;-2.742;2022-11-20T12:15:04;14.32;;;3.55;;
33862;SDS011;20158;51.436;-2.742;2022-11-20T12:17:53;16.17;;;3.83;;
33862;SDS011;20158;51.436;-2.742;2022-11-20T12:20:40;8.35;;;3.67;;
33862;SDS011;20158;51.436;-2.742;2022-11-20T12:23:38;12.48;;;3.60;;
33862;SDS011;20158;51.436;-2.742;2022-11-20T12:41:55;10.18;;;2.50;;
33862;SDS011;20158;51.436;-2.742;2022-11-20T13:00:23;10.10;;;2.78;;
33862;SDS011;20158;51.436;-2.742;2022-11-20T13:06:31;8.90;;;2.45;;
33862;SDS011;20158;51.436;-2.742;2022-11-20T13:09:17;5.60;;;1.65;;
33862;SDS011;20158;51.436;-2.742;2022-11-20T13:12:09;7.90;;;1.77;;
33862;SDS011;20158;51.436;-2.742;2022-11-20T13:17:47;6.35;;;1.42;;
33862;SDS011;20158;51.436;-2.742;2022-11-20T13:20:44;7.60;;;2.40;;
33862;SDS011;20158;51.436;-2.742;2022-11-20T13:23:30;8.50;;;2.25;;
33862;SDS011;20158;51.436;-2.742;2022-11-20T13:26:16;5.40;;;1.63;;
33862;SDS011;20158;51.436;-2.742;2022-11-20T13:29:15;10.35;;;2.17;;
33862;SDS011;20158;51.436;-2.742;2022-11-20T13:32:05;7.72;;;1.60;;
33862;SDS011;20158;51.436;-2.742;2022-11-20T13:34:57;10.90;;;1.85;;
33862;SDS011;20158;51.436;-2.742;2022-11-20T13:37:44;7.60;;;2.03;;
33862;SDS011;20158;51.436;-2.742;2022-11-20T13:40:29;5.13;;;1.60;;
33862;SDS011;20158;51.436;-2.742;2022-11-20T13:46:06;8.02;;;2.58;;
33862;SDS011;20158;51.436;-2.742;2022-11-20T13:48:52;7.05;;;1.73;;
33862;SDS011;20158;51.436;-2.742;2022-11-20T13:51:43;5.55;;;1.70;;
33862;SDS011;20158;51.436;-2.742;2022-11-20T14:00:56;6.18;;;2.03;;
33862;SDS011;20158;51.436;-2.742;2022-11-20T14:03:54;8.68;;;1.52;;
33862;SDS011;20158;51.436;-2.742;2022-11-20T14:06:41;5.22;;;1.60;;
33862;SDS011;20158;51.436;-2.742;2022-11-20T14:09:33;8.43;;;2.47;;
33862;SDS011;20158;51.436;-2.742;2022-11-20T14:12:20;5.47;;;1.98;;
33862;SDS011;20158;51.436;-2.742;2022-11-20T14:15:22;7.90;;;1.63;;
33862;SDS011;20158;51.436;-2.742;2022-11-20T14:18:20;7.97;;;2.35;;
33862;SDS011;20158;51.436;-2.742;2022-11-20T14:21:07;5.63;;;1.67;;
33862;SDS011;20158;51.436;-2.742;2022-11-20T14:23:54;3.65;;;1.15;;
33862;SDS011;20158;51.436;-2.742;2022-11-20T14:26:48;5.07;;;1.33;;
33862;SDS011;20158;51.436;-2.742;2022-11-20T14:29:35;9.55;;;1.63;;
33862;SDS011;20158;51.436;-2.742;2022-11-20T14:32:21;5.63;;;1.63;;
33862;SDS011;20158;51.436;-2.742;2022-11-20T14:35:45;8.15;;;1.70;;
33862;SDS011;20158;51.436;-2.742;2022-11-20T14:38:31;4.68;;;1.50;;
33862;SDS011;20158;51.436;-2.742;2022-11-20T14:41:17;6.60;;;1.40;;
33862;SDS011;20158;51.436;-2.742;2022-11-20T14:44:08;6.53;;;1.30;;
33862;SDS011;20158;51.436;-2.742;2022-11-20T14:46:54;12.70;;;2.03;;
33862;SDS011;20158;51.436;-2.742;2022-11-20T14:49:39;9.23;;;2.08;;
33862;SDS011;20158;51.436;-2.742;2022-11-20T14:52:26;7.40;;;2.25;;
33862;SDS011;20158;51.436;-2.742;2022-11-20T14:55:13;7.38;;;2.00;;
33862;SDS011;20158;51.436;-2.742;2022-11-20T14:58:30;11.23;;;2.08;;
33862;SDS011;20158;51.436;-2.742;2022-11-20T15:01:15;7.03;;;2.30;;
33862;SDS011;20158;51.436;-2.742;2022-11-20T15:04:10;7.53;;;2.58;;
33862;SDS011;20158;51.436;-2.742;2022-11-20T15:06:57;6.72;;;1.80;;
33862;SDS011;20158;51.436;-2.742;2022-11-20T15:09:44;7.13;;;1.75;;
33862;SDS011;20158;51.436;-2.742;2022-11-20T15:12:29;4.90;;;1.70;;
33862;SDS011;20158;51.436;-2.742;2022-11-20T15:15:17;7.85;;;2.33;;
33862;SDS011;20158;51.436;-2.742;2022-11-20T15:18:39;5.57;;;1.83;;
33862;SDS011;20158;51.436;-2.742;2022-11-20T15:21:27;5.57;;;2.00;;
33862;SDS011;20158;51.436;-2.742;2022-11-20T15:24:13;6.10;;;1.85;;
33862;SDS011;20158;51.436;-2.742;2022-11-20T15:26:57;5.30;;;2.17;;
33862;SDS011;20158;51.436;-2.742;2022-11-20T15:29:43;6.47;;;3.03;;
33862;SDS011;20158;51.436;-2.742;2022-11-20T15:32:28;5.35;;;1.90;;
33862;SDS011;20158;51.436;-2.742;2022-11-20T15:35:12;4.35;;;2.30;;
33862;SDS011;20158;51.436;-2.742;2022-11-20T15:37:57;5.90;;;2.38;;
33862;SDS011;20158;51.436;-2.742;2022-11-20T15:40:42;7.57;;;2.08;;
33862;SDS011;20158;51.436;-2.742;2022-11-20T15:43:27;4.57;;;2.08;;
33862;SDS011;20158;51.436;-2.742;2022-11-20T15:46:13;5.75;;;1.83;;
33862;SDS011;20158;51.436;-2.742;2022-11-20T15:48:59;5.75;;;1.70;;
33862;SDS011;20158;51.436;-2.742;2022-11-20T15:51:44;6.18;;;1.80;;
33862;SDS011;20158;51.436;-2.742;2022-11-20T15:54:31;6.05;;;2.53;;
33862;SDS011;20158;51.436;-2.742;2022-11-20T15:57:15;3.10;;;1.65;;
33862;SDS011;20158;51.436;-2.742;2022-11-20T16:00:00;3.83;;;1.90;;
33862;SDS011;20158;51.436;-2.742;2022-11-20T16:02:45;4.43;;;1.90;;
33862;SDS011;20158;51.436;-2.742;2022-11-20T16:05:30;5.65;;;2.47;;
33862;SDS011;20158;51.436;-2.742;2022-11-20T16:08:14;9.38;;;1.75;;
33862;SDS011;20158;51.436;-2.742;2022-11-20T16:10:59;4.95;;;2.00;;
33862;SDS011;20158;51.436;-2.742;2022-11-20T16:13:43;4.82;;;1.52;;
33862;SDS011;20158;51.436;-2.742;2022-11-20T16:16:47;6.65;;;2.03;;
33862;SDS011;20158;51.436;-2.742;2022-11-20T16:19:32;4.75;;;1.58;;
33862;SDS011;20158;51.436;-2.742;2022-11-20T16:22:16;5.88;;;1.67;;
33862;SDS011;20158;51.436;-2.742;2022-11-20T16:25:01;6.93;;;3.50;;
33862;SDS011;20158;51.436;-2.742;2022-11-20T16:27:45;5.10;;;1.42;;
33862;SDS011;20158;51.436;-2.742;2022-11-20T16:30:31;6.25;;;2.20;;
33862;SDS011;20158;51.436;-2.742;2022-11-20T16:33:16;4.13;;;1.58;;
33862;SDS011;20158;51.436;-2.742;2022-11-20T16:36:11;4.90;;;1.60;;
33862;SDS011;20158;51.436;-2.742;2022-11-20T16:38:58;4.72;;;1.40;;
33862;SDS011;20158;51.436;-2.742;2022-11-20T16:41:44;6.47;;;2.10;;
33862;SDS011;20158;51.436;-2.742;2022-11-20T16:44:29;4.00;;;1.63;;
33862;SDS011;20158;51.436;-2.742;2022-11-20T16:47:13;6.95;;;1.90;;
33862;SDS011;20158;51.436;-2.742;2022-11-20T16:49:58;3.65;;;1.38;;
33862;SDS011;20158;51.436;-2.742;2022-11-20T16:52:42;4.10;;;1.80;;
33862;SDS011;20158;51.436;-2.742;2022-11-20T16:55:27;4.35;;;1.80;;
33862;SDS011;20158;51.436;-2.742;2022-11-20T16:58:12;4.80;;;1.40;;
33862;SDS011;20158;51.436;-2.742;2022-11-20T17:01:00;4.82;;;1.77;;
33862;SDS011;20158;51.436;-2.742;2022-11-20T17:04:00;7.30;;;2.28;;
33862;SDS011;20158;51.436;-2.742;2022-11-20T17:06:48;3.13;;;2.10;;
33862;SDS011;20158;51.436;-2.742;2022-11-20T17:09:33;4.93;;;1.63;;
33862;SDS011;20158;51.436;-2.742;2022-11-20T17:12:17;5.78;;;2.03;;
33862;SDS011;20158;51.436;-2.742;2022-11-20T17:15:01;5.82;;;1.83;;
33862;SDS011;20158;51.436;-2.742;2022-11-20T17:17:46;6.35;;;2.63;;
33862;SDS011;20158;51.436;-2.742;2022-11-20T17:20:31;6.93;;;2.15;;
33862;SDS011;20158;51.436;-2.742;2022-11-20T17:23:15;4.13;;;2.15;;
33862;SDS011;20158;51.436;-2.742;2022-11-20T17:26:01;5.88;;;2.90;;
33862;SDS011;20158;51.436;-2.742;2022-11-20T17:28:46;11.57;;;2.42;;
33862;SDS011;20158;51.436;-2.742;2022-11-20T17:31:41;8.20;;;2.67;;
33862;SDS011;20158;51.436;-2.742;2022-11-20T17:34:26;8.75;;;2.17;;
33862;SDS011;20158;51.436;-2.742;2022-11-20T17:37:11;7.35;;;3.03;;
33862;SDS011;20158;51.436;-2.742;2022-11-20T17:39:55;10.75;;;2.42;;
33862;SDS011;20158;51.436;-2.742;2022-11-20T17:42:40;7.93;;;2.50;;
33862;SDS011;20158;51.436;-2.742;2022-11-20T17:45:24;7.47;;;2.67;;
33862;SDS011;20158;51.436;-2.742;2022-11-20T17:48:10;10.38;;;3.40;;
33862;SDS011;20158;51.436;-2.742;2022-11-20T17:50:58;9.13;;;3.28;;
33862;SDS011;20158;51.436;-2.742;2022-11-20T17:53:45;9.90;;;3.78;;
33862;SDS011;20158;51.436;-2.742;2022-11-20T17:56:32;9.68;;;3.17;;
33862;SDS011;20158;51.436;-2.742;2022-11-20T17:59:36;10.02;;;3.28;;
33862;SDS011;20158;51.436;-2.742;2022-11-20T18:02:21;14.05;;;5.00;;